Time;durP1;ratioP1;P1;durP2;ratioP2;P2;SDS_P1;SDS_P2;PMS_P1;PMS_P2;Temp;Humidity;BMP_temperature;BMP_pressure;BME280_temperature;BME280_humidity;BME280_pressure;Samples;Min_cycle;Max_cycle;Signal;HPM_P1;HPM_P2
2024/03/29 00:01:02;;;;;;;30.98;14.73;;;;;;;;;;6114703;23;20025;-60
2024/03/29 00:03:35;;;;;;;26.85;14.57;;;;;;;;;;6114739;23;20363;-64
2024/03/29 00:06:01;;;;;;;29.80;14.27;;;;;;;;;;6113938;23;20026;-64
2024/03/29 00:08:34;;;;;;;28.90;15.13;;;;;;;;;;6113601;23;20152;-65
2024/03/29 00:11:00;;;;;;;29.55;15.52;;;;;;;;;;6113321;23;20073;-64
2024/03/29 00:13:27;;;;;;;31.65;14.23;;;;;;;;;;6112935;23;20092;-49
2024/03/29 00:16:19;;;;;;;23.27;14.35;;;;;;;;;;6114767;23;20077;-61
2024/03/29 00:18:52;;;;;;;24.20;14.18;;;;;;;;;;6115906;23;20032;-60
2024/03/29 00:21:19;;;;;;;30.50;14.93;;;;;;;;;;6115143;23;20073;-61
2024/03/29 00:23:46;;;;;;;32.63;15.65;;;;;;;;;;6113488;23;20424;-61
2024/03/29 00:26:19;;;;;;;29.25;14.20;;;;;;;;;;6114948;23;20033;-61
2024/03/29 00:28:45;;;;;;;29.98;15.02;;;;;;;;;;6113849;23;20197;-61
2024/03/29 00:31:12;;;;;;;33.97;14.57;;;;;;;;;;6114039;23;20408;-47
2024/03/29 00:33:45;;;;;;;27.58;13.30;;;;;;;;;;6113707;23;20030;-51
2024/03/29 00:36:11;;;;;;;25.05;13.57;;;;;;;;;;6112873;23;20368;-49
2024/03/29 00:38:38;;;;;;;24.93;12.00;;;;;;;;;;6112572;23;20026;-52
2024/03/29 00:41:11;;;;;;;19.27;10.32;;;;;;;;;;6113859;23;20022;-50
2024/03/29 00:43:44;;;;;;;25.50;11.63;;;;;;;;;;6112079;23;20033;-54
2024/03/29 00:46:24;;;;;;;19.70;10.55;;;;;;;;;;6115727;23;20022;-53
2024/03/29 00:48:50;;;;;;;19.05;10.98;;;;;;;;;;6113294;23;20033;-56
2024/03/29 00:51:16;;;;;;;22.48;11.07;;;;;;;;;;6114035;23;20030;-52
2024/03/29 00:53:49;;;;;;;23.70;10.90;;;;;;;;;;6113385;23;20022;-54
2024/03/29 00:56:16;;;;;;;23.80;13.02;;;;;;;;;;6113508;23;20539;-53
2024/03/29 00:58:42;;;;;;;19.35;11.27;;;;;;;;;;6114605;23;20074;-53
2024/03/29 01:01:16;;;;;;;22.15;10.90;;;;;;;;;;6115014;23;20362;-61
2024/03/29 01:03:42;;;;;;;22.38;12.07;;;;;;;;;;6113740;23;20097;-61
2024/03/29 01:06:08;;;;;;;18.48;10.25;;;;;;;;;;6113679;23;20041;-61
2024/03/29 01:08:41;;;;;;;25.15;11.68;;;;;;;;;;6112353;23;20491;-61
2024/03/29 01:11:08;;;;;;;25.97;13.00;;;;;;;;;;6114551;23;20106;-61
2024/03/29 01:13:34;;;;;;;21.60;11.57;;;;;;;;;;6114837;23;20018;-50
2024/03/29 01:16:07;;;;;;;23.33;12.18;;;;;;;;;;6115376;23;20442;-49
2024/03/29 01:18:34;;;;;;;25.60;13.00;;;;;;;;;;6113131;23;20583;-49
2024/03/29 01:21:00;;;;;;;29.23;13.15;;;;;;;;;;6114373;23;20085;-52
2024/03/29 01:23:33;;;;;;;24.73;12.82;;;;;;;;;;6111163;23;20030;-53
2024/03/29 01:26:00;;;;;;;24.90;12.65;;;;;;;;;;6113990;23;20034;-53
2024/03/29 01:28:33;;;;;;;27.85;13.48;;;;;;;;;;6115399;23;20033;-64
2024/03/29 01:31:00;;;;;;;24.10;12.70;;;;;;;;;;6110938;23;20089;-64
2024/03/29 01:33:26;;;;;;;26.88;14.63;;;;;;;;;;6113852;23;20777;-64
2024/03/29 01:35:59;;;;;;;27.98;12.52;;;;;;;;;;6112471;23;20044;-64
2024/03/29 01:38:25;;;;;;;37.85;15.00;;;;;;;;;;6112529;23;20026;-61
2024/03/29 01:40:58;;;;;;;29.00;14.55;;;;;;;;;;6113020;23;20029;-55
2024/03/29 01:43:38;;;;;;;30.42;14.80;;;;;;;;;;6111973;23;20479;-53
2024/03/29 01:46:19;;;;;;;31.77;13.85;;;;;;;;;;6113627;23;20026;-54
2024/03/29 01:48:52;;;;;;;34.08;16.52;;;;;;;;;;6113007;23;20028;-53
2024/03/29 01:51:20;;;;;;;34.63;14.98;;;;;;;;;;6112058;23;20479;-51
2024/03/29 01:53:54;;;;;;;39.22;16.10;;;;;;;;;;6114020;23;20081;-54
2024/03/29 01:56:22;;;;;;;35.58;16.50;;;;;;;;;;6112313;23;20033;-60
2024/03/29 01:58:53;;;;;;;40.58;17.83;;;;;;;;;;6113944;23;20026;-60
2024/03/29 02:01:28;;;;;;;43.30;18.67;;;;;;;;;;6113108;23;20498;-60
2024/03/29 02:03:54;;;;;;;41.13;18.60;;;;;;;;;;6113077;23;20489;-62
2024/03/29 02:06:27;;;;;;;29.35;15.23;;;;;;;;;;6112387;23;20030;-61
2024/03/29 02:08:54;;;;;;;37.55;17.90;;;;;;;;;;6112453;23;20463;-62
2024/03/29 02:11:20;;;;;;;40.65;19.05;;;;;;;;;;6113125;23;20022;-61
2024/03/29 02:13:53;;;;;;;45.67;19.60;;;;;;;;;;6114045;23;20026;-61
2024/03/29 02:16:19;;;;;;;49.03;21.52;;;;;;;;;;6113567;23;20030;-61
2024/03/29 02:18:52;;;;;;;42.53;20.33;;;;;;;;;;6113085;23;20033;-61
2024/03/29 02:21:25;;;;;;;48.67;23.25;;;;;;;;;;6113120;23;20088;-60
2024/03/29 02:24:11;;;;;;;44.22;20.75;;;;;;;;;;6112141;23;20018;-60
2024/03/29 02:26:45;;;;;;;44.67;20.67;;;;;;;;;;6113468;23;20093;-56
2024/03/29 02:29:12;;;;;;;52.83;22.80;;;;;;;;;;6113030;23;20523;-55
2024/03/29 02:31:45;;;;;;;57.78;24.92;;;;;;;;;;6114138;23;20412;-52
2024/03/29 02:34:11;;;;;;;52.25;24.02;;;;;;;;;;6111625;23;20355;-53
2024/03/29 02:36:38;;;;;;;64.55;26.13;;;;;;;;;;6110988;23;20026;-62
2024/03/29 02:39:10;;;;;;;55.05;24.67;;;;;;;;;;6112972;23;20026;-65
2024/03/29 02:41:36;;;;;;;61.75;24.75;;;;;;;;;;6113021;23;20018;-65
2024/03/29 02:44:10;;;;;;;53.83;24.55;;;;;;;;;;6086668;23;20022;-64
2024/03/29 02:46:43;;;;;;;57.97;25.88;;;;;;;;;;6114888;23;20040;-64
2024/03/29 02:49:16;;;;;;;53.58;25.13;;;;;;;;;;6113356;23;20026;-64
2024/03/29 02:51:42;;;;;;;53.92;26.60;;;;;;;;;;6111949;23;20022;-63
2024/03/29 02:54:08;;;;;;;55.65;25.48;;;;;;;;;;6113476;23;20022;-60
2024/03/29 02:56:41;;;;;;;60.45;28.88;;;;;;;;;;6110680;23;20030;-59
2024/03/29 02:59:07;;;;;;;59.03;27.65;;;;;;;;;;6111816;23;20022;-59
2024/03/29 03:01:47;;;;;;;60.97;26.35;;;;;;;;;;6114151;23;20073;-60
2024/03/29 03:04:13;;;;;;;62.40;28.17;;;;;;;;;;6111952;23;20485;-59
2024/03/29 03:06:39;;;;;;;53.63;27.20;;;;;;;;;;6111155;23;20018;-64
2024/03/29 03:11:57;;;;;;;61.55;27.58;;;;;;;;;;6113114;23;20431;-64
2024/03/29 03:14:30;;;;;;;59.88;26.98;;;;;;;;;;6112148;23;20029;-64
2024/03/29 03:16:57;;;;;;;67.07;26.65;;;;;;;;;;6113838;23;20732;-64
2024/03/29 03:19:23;;;;;;;63.03;26.57;;;;;;;;;;6113469;23;20029;-64
2024/03/29 03:21:56;;;;;;;65.28;28.77;;;;;;;;;;6112626;23;20025;-61
2024/03/29 03:24:22;;;;;;;59.78;27.35;;;;;;;;;;6113479;23;20025;-60
2024/03/29 03:26:49;;;;;;;67.05;28.45;;;;;;;;;;6108930;23;20052;-61
2024/03/29 03:29:22;;;;;;;62.30;26.17;;;;;;;;;;6113082;23;20033;-60
2024/03/29 03:31:48;;;;;;;55.05;24.85;;;;;;;;;;6112852;23;20029;-59
2024/03/29 03:34:21;;;;;;;62.60;27.17;;;;;;;;;;6113415;23;20392;-63
2024/03/29 03:36:47;;;;;;;56.38;24.67;;;;;;;;;;6114188;23;20033;-53
2024/03/29 03:39:14;;;;;;;57.20;21.80;;;;;;;;;;6113483;23;20025;-51
2024/03/29 03:41:47;;;;;;;42.63;21.30;;;;;;;;;;6114794;23;20018;-48
2024/03/29 03:44:21;;;;;;;50.35;20.35;;;;;;;;;;6111803;23;20026;-53
2024/03/29 03:47:01;;;;;;;48.75;22.35;;;;;;;;;;6115114;23;20048;-51
2024/03/29 03:49:28;;;;;;;48.85;20.75;;;;;;;;;;6114867;23;20045;-50
2024/03/29 03:51:54;;;;;;;43.88;19.73;;;;;;;;;;6115401;23;20022;-60
2024/03/29 03:54:27;;;;;;;46.08;20.10;;;;;;;;;;6114189;23;20026;-60
2024/03/29 03:56:53;;;;;;;49.45;19.60;;;;;;;;;;6114180;23;20022;-59
2024/03/29 03:59:26;;;;;;;39.90;17.77;;;;;;;;;;6112230;23;20030;-60
2024/03/29 04:01:59;;;;;;;38.83;17.50;;;;;;;;;;6115040;23;20022;-60
2024/03/29 04:04:25;;;;;;;46.00;18.13;;;;;;;;;;6113774;23;20375;-64
2024/03/29 04:06:51;;;;;;;40.58;16.95;;;;;;;;;;6112347;23;20022;-64
2024/03/29 04:09:24;;;;;;;39.50;16.77;;;;;;;;;;6115060;23;20101;-62
2024/03/29 04:11:50;;;;;;;37.08;16.40;;;;;;;;;;6113928;23;20022;-64
2024/03/29 04:14:17;;;;;;;33.25;15.52;;;;;;;;;;6114817;23;20038;-64
2024/03/29 04:16:50;;;;;;;34.05;14.38;;;;;;;;;;6115269;23;20025;-64
2024/03/29 04:19:16;;;;;;;31.25;13.68;;;;;;;;;;6115428;23;20022;-53
2024/03/29 04:21:42;;;;;;;35.47;12.70;;;;;;;;;;6112746;23;20487;-51
2024/03/29 04:24:15;;;;;;;34.47;12.38;;;;;;;;;;6113313;23;20379;-53
2024/03/29 04:26:44;;;;;;;31.73;13.02;;;;;;;;;;6114995;23;20073;-54
2024/03/29 04:29:17;;;;;;;33.45;11.70;;;;;;;;;;6114346;23;20037;-64
2024/03/29 04:31:45;;;;;;;27.25;9.70;;;;;;;;;;6115273;23;20022;-58
2024/03/29 04:34:12;;;;;;;31.05;10.55;;;;;;;;;;6112828;23;20033;-59
2024/03/29 04:36:44;;;;;;;34.65;10.30;;;;;;;;;;6113109;23;20030;-59
2024/03/29 04:39:30;;;;;;;32.03;10.65;;;;;;;;;;6112308;23;20120;-59
2024/03/29 04:42:23;;;;;;;32.47;9.23;;;;;;;;;;6112793;23;20029;-59
2024/03/29 04:45:16;;;;;;;28.70;8.90;;;;;;;;;;6112213;23;20118;-59
2024/03/29 04:48:09;;;;;;;27.98;8.40;;;;;;;;;;6114678;23;20530;-59
2024/03/29 04:50:54;;;;;;;34.25;9.55;;;;;;;;;;6114958;23;20033;-60
2024/03/29 04:53:47;;;;;;;30.25;7.78;;;;;;;;;;6113007;23;20026;-59
2024/03/29 04:56:36;;;;;;;34.15;7.90;;;;;;;;;;6114632;23;20026;-59
2024/03/29 04:59:26;;;;;;;35.58;8.10;;;;;;;;;;6113577;23;20042;-64
2024/03/29 05:02:12;;;;;;;32.28;8.32;;;;;;;;;;6114775;23;20048;-50
2024/03/29 05:05:05;;;;;;;25.85;6.93;;;;;;;;;;6115236;23;20473;-50
2024/03/29 05:07:51;;;;;;;22.23;6.85;;;;;;;;;;6115215;23;20022;-50
2024/03/29 05:10:44;;;;;;;23.80;7.20;;;;;;;;;;6113557;23;20371;-53
2024/03/29 05:13:31;;;;;;;31.00;7.30;;;;;;;;;;6112795;23;20396;-48
2024/03/29 05:16:23;;;;;;;25.38;6.95;;;;;;;;;;6114282;23;20022;-52
2024/03/29 05:19:10;;;;;;;44.40;8.30;;;;;;;;;;6112897;23;20026;-54
2024/03/29 05:22:02;;;;;;;37.83;6.38;;;;;;;;;;6113047;23;20475;-50
2024/03/29 05:24:48;;;;;;;34.55;6.72;;;;;;;;;;6113250;23;20025;-52
2024/03/29 05:27:41;;;;;;;37.28;6.13;;;;;;;;;;6112931;23;20026;-65
2024/03/29 05:30:28;;;;;;;27.10;5.93;;;;;;;;;;6112626;23;20363;-60
2024/03/29 05:33:20;;;;;;;34.53;6.47;;;;;;;;;;6111029;23;20026;-58
2024/03/29 05:36:13;;;;;;;32.80;5.75;;;;;;;;;;6111607;23;20026;-59
2024/03/29 05:39:06;;;;;;;34.75;5.88;;;;;;;;;;6112106;23;20029;-59
2024/03/29 05:41:59;;;;;;;36.92;5.70;;;;;;;;;;6113134;23;20053;-59
2024/03/29 05:44:52;;;;;;;27.45;5.60;;;;;;;;;;6112409;23;20034;-60
2024/03/29 05:47:45;;;;;;;24.40;4.90;;;;;;;;;;6109251;23;20030;-60
2024/03/29 05:50:33;;;;;;;43.58;5.32;;;;;;;;;;6113539;23;20018;-60
2024/03/29 05:53:24;;;;;;;35.28;5.18;;;;;;;;;;6114554;23;20026;-60
2024/03/29 05:56:17;;;;;;;29.92;4.82;;;;;;;;;;6110739;23;20483;-48
2024/03/29 05:59:12;;;;;;;41.92;4.30;;;;;;;;;;6115574;23;20025;-52
2024/03/29 06:01:56;;;;;;;33.08;4.88;;;;;;;;;;6112736;23;20022;-49
2024/03/29 06:04:50;;;;;;;31.48;5.10;;;;;;;;;;6113465;23;20399;-47
2024/03/29 06:07:35;;;;;;;36.25;5.97;;;;;;;;;;6111365;23;20770;-51
2024/03/29 06:10:28;;;;;;;34.83;5.28;;;;;;;;;;6113673;23;20483;-47
2024/03/29 06:13:29;;;;;;;31.33;4.45;;;;;;;;;;6112589;23;20368;-62
2024/03/29 06:18:55;;;;;;;30.25;4.32;;;;;;;;;;6112765;23;20029;-62
2024/03/29 06:21:48;;;;;;;31.40;4.28;;;;;;;;;;6113251;23;20026;-61
2024/03/29 06:24:34;;;;;;;26.85;4.93;;;;;;;;;;6111707;23;20033;-60
2024/03/29 06:27:27;;;;;;;30.23;5.45;;;;;;;;;;6112455;23;20041;-61
2024/03/29 06:30:14;;;;;;;25.50;3.75;;;;;;;;;;6113317;23;20021;-61
2024/03/29 06:33:07;;;;;;;26.73;3.95;;;;;;;;;;6113864;23;20022;-61
2024/03/29 06:35:56;;;;;;;30.27;4.20;;;;;;;;;;6113591;23;20081;-61
2024/03/29 06:38:48;;;;;;;21.42;3.90;;;;;;;;;;6113794;23;20026;-61
2024/03/29 06:41:41;;;;;;;21.23;4.15;;;;;;;;;;6113951;23;20033;-64
2024/03/29 06:44:34;;;;;;;27.73;4.25;;;;;;;;;;6111017;23;20029;-64
2024/03/29 06:47:28;;;;;;;25.20;4.13;;;;;;;;;;6114156;23;20022;-64
2024/03/29 06:50:14;;;;;;;23.30;4.05;;;;;;;;;;6113661;23;20021;-63
2024/03/29 06:53:08;;;;;;;31.67;4.60;;;;;;;;;;6114022;23;20029;-61
2024/03/29 06:56:03;;;;;;;24.90;4.63;;;;;;;;;;6110796;23;20036;-60
2024/03/29 06:58:50;;;;;;;21.25;3.40;;;;;;;;;;6111911;23;20018;-60
2024/03/29 07:01:42;;;;;;;22.95;4.00;;;;;;;;;;6112628;23;20022;-60
2024/03/29 07:04:29;;;;;;;23.92;3.83;;;;;;;;;;6111908;23;20471;-61
2024/03/29 07:07:21;;;;;;;24.70;3.70;;;;;;;;;;6111437;23;20651;-60
2024/03/29 07:10:08;;;;;;;33.03;4.30;;;;;;;;;;6115518;23;20022;-61
2024/03/29 07:13:00;;;;;;;23.88;4.13;;;;;;;;;;6112526;23;20451;-60
2024/03/29 07:15:53;;;;;;;22.35;4.53;;;;;;;;;;6116141;23;20032;-61
2024/03/29 07:18:46;;;;;;;20.50;4.63;;;;;;;;;;6115055;23;20026;-60
2024/03/29 07:21:32;;;;;;;28.25;4.15;;;;;;;;;;6116116;23;20049;-59
2024/03/29 07:24:27;;;;;;;26.02;4.00;;;;;;;;;;6114377;23;20092;-60
2024/03/29 07:27:13;;;;;;;23.38;4.20;;;;;;;;;;6115656;23;20383;-61
2024/03/29 07:30:07;;;;;;;23.25;4.53;;;;;;;;;;6116656;23;20022;-60
2024/03/29 07:32:51;;;;;;;27.52;4.85;;;;;;;;;;6114597;23;20026;-61
2024/03/29 07:35:44;;;;;;;24.70;5.20;;;;;;;;;;6115502;23;20034;-61
2024/03/29 07:38:31;;;;;;;30.63;4.15;;;;;;;;;;6114567;23;20018;-59
2024/03/29 07:41:23;;;;;;;31.10;5.53;;;;;;;;;;6116200;23;20022;-58
2024/03/29 07:44:16;;;;;;;20.27;4.75;;;;;;;;;;6113469;23;20027;-59
2024/03/29 08:21:50;;;;;;;24.88;9.32;;;;;;;;;;5894134;22;8288927;-54
2024/03/29 08:24:44;;;;;;;23.17;8.18;;;;;;;;;;6187378;23;20020;-57
2024/03/29 08:27:10;;;;;;;27.23;9.43;;;;;;;;;;6186819;23;20016;-50
2024/03/29 08:29:43;;;;;;;20.15;9.80;;;;;;;;;;6184645;23;20028;-63
2024/03/29 08:32:10;;;;;;;26.63;9.13;;;;;;;;;;6188782;23;20486;-63
2024/03/29 08:35:02;;;;;;;27.75;8.73;;;;;;;;;;6188593;23;20369;-63
2024/03/29 08:37:50;;;;;;;21.48;9.15;;;;;;;;;;6186871;23;20039;-63
2024/03/29 08:40:43;;;;;;;24.75;9.80;;;;;;;;;;6186700;23;20814;-63
2024/03/29 08:43:28;;;;;;;18.15;8.70;;;;;;;;;;6184331;23;20365;-66
2024/03/29 08:46:21;;;;;;;25.83;10.13;;;;;;;;;;6185961;23;20161;-51
2024/03/29 08:49:07;;;;;;;26.02;10.82;;;;;;;;;;6183915;23;20465;-51
2024/03/29 08:52:04;;;;;;;27.83;10.15;;;;;;;;;;6180095;23;20024;-54
2024/03/29 08:54:46;;;;;;;27.02;9.98;;;;;;;;;;6163145;23;20079;-50
2024/03/29 10:12:28;;;;;;;20.35;9.25;;;;;;;;;;5862490;22;8268448;-59
2024/03/29 10:15:25;;;;;;;17.73;8.95;;;;;;;;;;6212036;23;20465;-59
2024/03/29 10:18:10;;;;;;;19.23;9.18;;;;;;;;;;6211534;23;20087;-64
2024/03/29 10:21:04;;;;;;;16.10;8.40;;;;;;;;;;6211302;23;20025;-51
2024/03/29 10:23:51;;;;;;;18.65;8.15;;;;;;;;;;6211656;23;20465;-47
2024/03/29 10:26:47;;;;;;;22.08;8.52;;;;;;;;;;6211902;23;20031;-47
2024/03/29 10:29:33;;;;;;;16.65;7.88;;;;;;;;;;6210224;23;20023;-46
2024/03/29 10:32:26;;;;;;;13.75;7.68;;;;;;;;;;6209600;23;20462;-46
2024/03/29 10:35:12;;;;;;;16.65;7.22;;;;;;;;;;6204835;23;20021;-63
2024/03/29 10:38:05;;;;;;;14.27;7.32;;;;;;;;;;6204703;23;20021;-63
2024/03/29 10:40:52;;;;;;;18.80;8.45;;;;;;;;;;6204310;23;20025;-63
2024/03/29 10:43:47;;;;;;;19.08;7.85;;;;;;;;;;6206043;23;20646;-63
2024/03/29 10:46:31;;;;;;;19.83;7.45;;;;;;;;;;6205681;23;20350;-60
2024/03/29 10:49:24;;;;;;;19.38;7.57;;;;;;;;;;6206700;23;20027;-64
2024/03/29 10:52:13;;;;;;;17.50;7.47;;;;;;;;;;6203874;23;20021;-63
2024/03/29 10:55:03;;;;;;;13.38;6.82;;;;;;;;;;6204848;23;20021;-63
2024/03/29 10:57:54;;;;;;;20.20;6.68;;;;;;;;;;6205940;23;20029;-64
2024/03/29 11:00:47;;;;;;;15.95;6.97;;;;;;;;;;6204683;23;20027;-63
2024/03/29 11:03:38;;;;;;;13.43;6.50;;;;;;;;;;6205800;23;20020;-60
2024/03/29 11:06:31;;;;;;;17.25;7.13;;;;;;;;;;6205439;23;20385;-59
2024/03/29 11:09:18;;;;;;;11.60;6.75;;;;;;;;;;6204892;23;20016;-59
2024/03/29 11:12:11;;;;;;;13.75;7.05;;;;;;;;;;6201547;23;20036;-60
2024/03/29 11:14:47;;;;;;;12.63;6.53;;;;;;;;;;6203007;23;20025;-59
2024/03/29 11:17:33;;;;;;;15.70;6.20;;;;;;;;;;6204241;23;20024;-64
2024/03/29 11:20:37;;;;;;;15.18;6.88;;;;;;;;;;6202998;23;20405;-64
2024/03/29 11:23:22;;;;;;;17.25;6.40;;;;;;;;;;6203474;23;20021;-64
2024/03/29 11:26:15;;;;;;;16.90;6.90;;;;;;;;;;6205091;23;20020;-63
2024/03/29 11:29:03;;;;;;;21.02;5.95;;;;;;;;;;6202245;23;20024;-64
2024/03/29 11:31:57;;;;;;;11.50;5.07;;;;;;;;;;6205634;23;20021;-50
2024/03/29 11:34:51;;;;;;;13.77;4.95;;;;;;;;;;6205417;23;20028;-50
2024/03/29 11:37:37;;;;;;;12.57;5.22;;;;;;;;;;6205504;23;20023;-47
2024/03/29 11:40:30;;;;;;;13.32;5.22;;;;;;;;;;6204527;23;20024;-47
2024/03/29 11:43:16;;;;;;;11.38;4.90;;;;;;;;;;6203271;23;20016;-50
2024/03/29 11:46:10;;;;;;;17.80;4.95;;;;;;;;;;6203178;23;20355;-53
2024/03/29 11:48:57;;;;;;;13.20;4.90;;;;;;;;;;6205786;23;20024;-50
2024/03/29 11:51:50;;;;;;;15.63;4.43;;;;;;;;;;6203843;23;20028;-61
2024/03/29 11:54:39;;;;;;;14.27;4.40;;;;;;;;;;6203097;23;20024;-59
2024/03/29 11:57:32;;;;;;;10.90;3.92;;;;;;;;;;6200869;23;20024;-59
2024/03/29 12:00:18;;;;;;;18.65;4.32;;;;;;;;;;6201464;23;20205;-59
2024/03/29 12:03:11;;;;;;;12.60;3.97;;;;;;;;;;6201900;23;20437;-59
2024/03/29 12:05:58;;;;;;;10.48;3.90;;;;;;;;;;6201694;23;20021;-59
2024/03/29 12:08:53;;;;;;;12.93;3.97;;;;;;;;;;6200152;23;20665;-61
2024/03/29 12:11:47;;;;;;;11.63;3.85;;;;;;;;;;6200569;23;20020;-61
2024/03/29 12:14:40;;;;;;;10.70;3.72;;;;;;;;;;6204056;23;20477;-61
2024/03/29 12:17:26;;;;;;;9.52;3.90;;;;;;;;;;6203782;23;20051;-60
2024/03/29 12:20:05;;;;;;;9.98;4.13;;;;;;;;;;6202418;23;20086;-61
2024/03/29 12:22:33;;;;;;;12.85;3.78;;;;;;;;;;6203705;23;20614;-61
2024/03/29 12:25:26;;;;;;;11.68;3.58;;;;;;;;;;6203801;23;20025;-61
2024/03/29 12:28:14;;;;;;;11.25;4.00;;;;;;;;;;6202882;23;20068;-61
2024/03/29 12:31:09;;;;;;;14.20;3.67;;;;;;;;;;6203233;23;20362;-65
2024/03/29 12:33:56;;;;;;;7.82;3.42;;;;;;;;;;6203454;23;20021;-65
2024/03/29 12:36:49;;;;;;;18.38;3.38;;;;;;;;;;6205397;23;20024;-65
2024/03/29 12:39:38;;;;;;;12.70;3.60;;;;;;;;;;6202985;23;20024;-65
2024/03/29 12:42:30;;;;;;;15.43;3.78;;;;;;;;;;6203310;23;20374;-65
2024/03/29 12:45:17;;;;;;;16.35;3.42;;;;;;;;;;6204011;23;20020;-61
2024/03/29 12:48:13;;;;;;;9.82;3.25;;;;;;;;;;6204164;23;20024;-65
2024/03/29 12:50:59;;;;;;;12.98;3.75;;;;;;;;;;6201432;23;20029;-65
2024/03/29 12:53:52;;;;;;;17.05;3.22;;;;;;;;;;6201831;23;20024;-64
2024/03/29 12:56:40;;;;;;;16.67;3.92;;;;;;;;;;6202184;23;20039;-65
2024/03/29 12:59:34;;;;;;;13.82;3.85;;;;;;;;;;6202750;23;20032;-65
2024/03/29 13:02:27;;;;;;;11.88;3.33;;;;;;;;;;6203575;23;20028;-65
2024/03/29 13:05:13;;;;;;;12.95;4.03;;;;;;;;;;6204333;23;20090;-60
2024/03/29 13:08:08;;;;;;;11.18;3.88;;;;;;;;;;6203981;23;20457;-60
2024/03/29 13:10:58;;;;;;;14.50;4.18;;;;;;;;;;6203228;23;20120;-60
2024/03/29 13:13:58;;;;;;;12.40;4.15;;;;;;;;;;6204259;23;20043;-48
2024/03/29 13:16:45;;;;;;;23.88;4.22;;;;;;;;;;6205411;23;20024;-50
2024/03/29 13:19:38;;;;;;;16.85;3.60;;;;;;;;;;6200045;23;20024;-49
2024/03/29 13:22:06;;;;;;;16.13;3.70;;;;;;;;;;6203194;23;20021;-48
2024/03/29 13:24:58;;;;;;;11.10;3.65;;;;;;;;;;6204570;23;20031;-46
2024/03/29 13:27:45;;;;;;;15.25;3.42;;;;;;;;;;6202804;23;20028;-52
2024/03/29 13:30:43;;;;;;;8.18;2.78;;;;;;;;;;6202951;23;20031;-50
2024/03/29 13:33:24;;;;;;;13.15;3.22;;;;;;;;;;6201496;23;20017;-61
2024/03/29 13:36:17;;;;;;;12.93;3.47;;;;;;;;;;6201977;23;20017;-62
2024/03/29 13:39:13;;;;;;;19.45;7.90;;;;;;;;;;6203564;23;20020;-62
2024/03/29 13:42:09;;;;;;;14.95;4.20;;;;;;;;;;6204090;23;20021;-61
2024/03/29 13:44:56;;;;;;;17.98;3.30;;;;;;;;;;6196907;23;20021;-62
2024/03/29 13:47:49;;;;;;;9.40;2.90;;;;;;;;;;6201942;23;20517;-62
2024/03/29 13:50:35;;;;;;;14.60;3.42;;;;;;;;;;6198008;23;20648;-65
2024/03/29 13:53:08;;;;;;;11.98;3.22;;;;;;;;;;6202712;23;20028;-48
2024/03/29 13:55:35;;;;;;;9.40;3.35;;;;;;;;;;6200364;23;20028;-48
2024/03/29 13:58:27;;;;;;;14.52;3.53;;;;;;;;;;6201521;23;20024;-51
2024/03/29 14:00:56;;;;;;;13.90;3.70;;;;;;;;;;6201180;23;20025;-50
2024/03/29 14:03:22;;;;;;;11.40;3.90;;;;;;;;;;6201567;23;20493;-47
2024/03/29 14:06:15;;;;;;;11.68;3.42;;;;;;;;;;6201444;23;20025;-50
2024/03/29 14:09:08;;;;;;;10.43;3.30;;;;;;;;;;6202336;23;20028;-59
2024/03/29 14:12:02;;;;;;;12.30;3.03;;;;;;;;;;6203294;23;20025;-49
2024/03/29 14:14:54;;;;;;;18.02;3.92;;;;;;;;;;6204252;23;20048;-48
2024/03/29 14:17:40;;;;;;;12.38;3.40;;;;;;;;;;6203561;23;20024;-51
2024/03/29 14:20:33;;;;;;;10.10;3.08;;;;;;;;;;6203002;23;20149;-50
2024/03/29 14:23:22;;;;;;;10.88;3.42;;;;;;;;;;6203658;23;20055;-51
2024/03/29 14:26:12;;;;;;;13.70;3.65;;;;;;;;;;6205828;23;20021;-50
2024/03/29 14:28:38;;;;;;;10.95;3.15;;;;;;;;;;6203297;23;20079;-65
2024/03/29 14:31:04;;;;;;;8.80;2.80;;;;;;;;;;6204943;23;20362;-65
2024/03/29 14:33:38;;;;;;;14.02;3.55;;;;;;;;;;6203430;23;20028;-65
2024/03/29 14:36:24;;;;;;;16.42;3.17;;;;;;;;;;6204623;23;20017;-65
2024/03/29 14:39:23;;;;;;;11.55;3.08;;;;;;;;;;6199370;23;20126;-65
2024/03/29 14:42:16;;;;;;;7.13;2.90;;;;;;;;;;6203098;23;20366;-64
2024/03/29 14:45:06;;;;;;;10.32;3.22;;;;;;;;;;6203111;23;20425;-65
2024/03/29 14:47:52;;;;;;;15.05;3.45;;;;;;;;;;6202005;23;20025;-60
2024/03/29 14:50:45;;;;;;;22.50;12.25;;;;;;;;;;6202399;23;20531;-66
2024/03/29 14:53:11;;;;;;;12.73;3.00;;;;;;;;;;6204806;23;20028;-64
2024/03/29 14:56:04;;;;;;;10.75;2.53;;;;;;;;;;6205126;23;20025;-65
2024/03/29 14:58:50;;;;;;;17.42;3.40;;;;;;;;;;6201658;23;20028;-64
2024/03/29 15:01:43;;;;;;;9.38;2.80;;;;;;;;;;6204726;23;20028;-65
2024/03/29 15:04:29;;;;;;;14.80;3.33;;;;;;;;;;6204886;23;20044;-65
2024/03/29 15:07:03;;;;;;;11.93;2.55;;;;;;;;;;6203470;23;20025;-65
2024/03/29 15:09:29;;;;;;;;;;;;;;;;;;6204068;23;20099;-65
2024/03/29 15:11:56;;;;;;;13.00;2.67;;;;;;;;;;6202532;23;19923;-65
2024/03/29 15:14:49;;;;;;;11.15;3.00;;;;;;;;;;6202551;23;20032;-65
2024/03/29 15:17:35;;;;;;;11.90;3.55;;;;;;;;;;6202492;23;20020;-66
2024/03/29 15:20:28;;;;;;;8.52;2.65;;;;;;;;;;6203706;23;20040;-65
2024/03/29 15:23:15;;;;;;;9.35;2.85;;;;;;;;;;6202826;23;20021;-59
2024/03/29 15:26:08;;;;;;;11.68;2.70;;;;;;;;;;6203019;23;20028;-51
2024/03/29 15:29:10;;;;;;;12.48;2.65;;;;;;;;;;6201850;23;20025;-54
2024/03/29 15:32:03;;;;;;;11.68;2.67;;;;;;;;;;6202228;23;20098;-51
2024/03/29 15:34:56;;;;;;;9.18;2.80;;;;;;;;;;6203144;23;20024;-52
2024/03/29 15:37:49;;;;;;;8.20;2.45;;;;;;;;;;6203623;23;20020;-51
2024/03/29 15:40:45;;;;;;;15.57;3.10;;;;;;;;;;6203194;23;20632;-62
2024/03/29 15:43:11;;;;;;;11.32;3.17;;;;;;;;;;6203903;23;20354;-64
2024/03/29 15:46:04;;;;;;;11.10;2.53;;;;;;;;;;6202961;23;20017;-62
2024/03/29 15:48:50;;;;;;;10.30;2.63;;;;;;;;;;6203380;23;20044;-62
2024/03/29 15:52:03;;;;;;;10.80;2.33;;;;;;;;;;6203376;23;20028;-62
2024/03/29 15:54:49;;;;;;;15.13;2.85;;;;;;;;;;6202311;23;20025;-62
2024/03/29 15:57:42;;;;;;;12.57;2.92;;;;;;;;;;6203610;23;20032;-62
2024/03/29 16:00:30;;;;;;;12.20;3.05;;;;;;;;;;6202465;23;20031;-65
2024/03/29 16:03:21;;;;;;;9.88;2.50;;;;;;;;;;6203504;23;20071;-49
2024/03/29 16:06:07;;;;;;;12.32;2.50;;;;;;;;;;6203350;23;20409;-47
2024/03/29 16:08:40;;;;;;;11.75;3.15;;;;;;;;;;6203514;23;20035;-50
2024/03/29 16:11:36;;;;;;;11.35;2.50;;;;;;;;;;6204456;23;20046;-46
2024/03/29 16:14:30;;;;;;;9.68;2.90;;;;;;;;;;6204342;23;20031;-47
2024/03/29 16:17:15;;;;;;;12.15;2.80;;;;;;;;;;6201958;23;20035;-60
2024/03/29 16:20:08;;;;;;;10.68;3.33;;;;;;;;;;6201547;23;20028;-59
2024/03/29 16:22:54;;;;;;;18.75;2.83;;;;;;;;;;6201009;23;20028;-60
2024/03/29 16:25:47;;;;;;;12.05;2.40;;;;;;;;;;6202271;23;20020;-59
2024/03/29 16:28:34;;;;;;;12.57;3.05;;;;;;;;;;6203976;23;20358;-59
2024/03/29 16:31:27;;;;;;;13.82;3.17;;;;;;;;;;6201764;23;20017;-60
2024/03/29 16:34:14;;;;;;;15.68;3.25;;;;;;;;;;6202284;23;20028;-60
2024/03/29 16:37:05;;;;;;;12.20;2.60;;;;;;;;;;6202288;23;20028;-60
2024/03/29 16:39:51;;;;;;;8.20;2.88;;;;;;;;;;6203146;23;20024;-60
2024/03/29 16:42:44;;;;;;;13.77;2.72;;;;;;;;;;6200579;23;20028;-61
2024/03/29 16:45:31;;;;;;;9.95;2.78;;;;;;;;;;6202535;23;20489;-60
2024/03/29 16:48:24;;;;;;;11.80;2.70;;;;;;;;;;6201968;23;20769;-60
2024/03/29 16:51:17;;;;;;;8.93;2.40;;;;;;;;;;6201234;23;20497;-60
2024/03/29 16:54:03;;;;;;;8.60;2.70;;;;;;;;;;6201201;23;20024;-60
2024/03/29 16:56:56;;;;;;;12.32;3.10;;;;;;;;;;6201427;23;20017;-65
2024/03/29 16:59:43;;;;;;;12.07;3.15;;;;;;;;;;6200987;23;20039;-65
2024/03/29 17:02:18;;;;;;;13.73;2.45;;;;;;;;;;6177439;23;20035;-65
2024/03/29 17:04:46;;;;;;;16.65;3.22;;;;;;;;;;6203782;23;20017;-65
2024/03/29 17:07:37;;;;;;;7.53;2.70;;;;;;;;;;6200013;23;20025;-65
2024/03/29 17:10:23;;;;;;;7.25;2.38;;;;;;;;;;6203364;23;20485;-64
2024/03/29 17:13:23;;;;;;;12.75;2.65;;;;;;;;;;6204625;23;20042;-65
2024/03/29 17:16:09;;;;;;;11.95;2.63;;;;;;;;;;6205351;23;20476;-65
2024/03/29 17:19:02;;;;;;;12.07;2.42;;;;;;;;;;6204108;23;20024;-65
2024/03/29 17:21:48;;;;;;;8.23;2.83;;;;;;;;;;6199408;23;20031;-65
2024/03/29 17:24:41;;;;;;;15.23;3.22;;;;;;;;;;6197377;23;20020;-65
2024/03/29 17:27:34;;;;;;;11.70;2.55;;;;;;;;;;6203471;23;20024;-65
2024/03/29 17:30:27;;;;;;;9.38;2.65;;;;;;;;;;6202576;23;20039;-65
2024/03/29 17:33:13;;;;;;;7.82;2.60;;;;;;;;;;6204318;23;20208;-61
2024/03/29 17:36:06;;;;;;;10.32;2.70;;;;;;;;;;6205482;23;20032;-60
2024/03/29 17:38:52;;;;;;;15.75;2.90;;;;;;;;;;6205680;23;20023;-59
2024/03/29 17:41:46;;;;;;;7.75;2.53;;;;;;;;;;6204741;23;20028;-60
2024/03/29 17:44:32;;;;;;;6.13;2.25;;;;;;;;;;6206490;23;20024;-59
2024/03/29 17:47:25;;;;;;;8.30;2.63;;;;;;;;;;6205562;23;20433;-59
2024/03/29 17:50:12;;;;;;;8.32;2.10;;;;;;;;;;6207479;23;20024;-49
2024/03/29 17:53:04;;;;;;;8.77;2.47;;;;;;;;;;6205696;23;20028;-64